createdAt,value
2019-03-25T00:02:16.576Z,2.00
2019-03-25T00:04:51.114Z,2.10
2019-03-25T00:07:24.651Z,2.00
2019-03-25T00:09:56.444Z,2.00
2019-03-25T00:12:27.536Z,2.00
2019-03-25T00:14:58.713Z,2.10
2019-03-25T00:17:29.993Z,2.00
2019-03-25T00:20:03.380Z,1.90
2019-03-25T00:22:35.636Z,2.00
2019-03-25T00:25:07.441Z,2.00
2019-03-25T00:27:41.157Z,2.00
2019-03-25T00:30:16.976Z,1.90
2019-03-25T00:32:51.756Z,1.80
2019-03-25T00:35:24.535Z,1.80
2019-03-25T00:37:59.322Z,1.70
2019-03-25T00:40:32.241Z,1.70
2019-03-25T00:43:04.973Z,1.70
2019-03-25T00:45:36.756Z,1.70
2019-03-25T00:48:07.090Z,1.60
2019-03-25T00:50:38.385Z,1.60
2019-03-25T00:53:10.157Z,1.50
2019-03-25T00:55:41.708Z,1.50
2019-03-25T00:58:13.623Z,1.50
2019-03-25T01:00:46.781Z,1.50
2019-03-25T01:03:19.889Z,1.50
2019-03-25T01:05:52.269Z,1.40
2019-03-25T01:08:22.547Z,1.30
2019-03-25T01:10:54.725Z,1.30
2019-03-25T01:13:27.480Z,1.20
2019-03-25T01:15:59.716Z,1.20
2019-03-25T01:18:33.540Z,1.20
2019-03-25T01:21:09.193Z,1.10
2019-03-25T01:23:39.732Z,1.20
2019-03-25T01:26:09.184Z,1.20
2019-03-25T01:28:38.736Z,1.10
2019-03-25T01:31:09.286Z,1.20
2019-03-25T01:33:44.072Z,1.20
2019-03-25T01:36:16.485Z,1.20
2019-03-25T01:38:49.104Z,1.20
2019-03-25T01:41:22.856Z,1.20
2019-03-25T01:43:56.522Z,1.30
2019-03-25T01:46:29.839Z,1.20
2019-03-25T01:49:01.036Z,1.20
2019-03-25T01:51:34.138Z,1.10
2019-03-25T01:54:06.251Z,1.10
2019-03-25T01:56:37.560Z,1.10
2019-03-25T01:59:07.472Z,1.00
2019-03-25T02:01:39.126Z,0.90
2019-03-25T02:04:11.851Z,0.80
2019-03-25T02:06:44.073Z,0.80
2019-03-25T02:09:13.644Z,0.70
2019-03-25T02:11:46.378Z,0.70
2019-03-25T02:14:20.145Z,0.80
2019-03-25T02:16:55.027Z,0.70
2019-03-25T02:19:28.205Z,0.60
2019-03-25T02:22:01.218Z,0.70
2019-03-25T02:24:31.917Z,0.70
2019-03-25T02:27:01.209Z,0.70
2019-03-25T02:29:35.213Z,0.60
2019-03-25T02:32:11.579Z,0.70
2019-03-25T02:34:44.266Z,0.60
2019-03-25T02:37:16.140Z,0.60
2019-03-25T02:39:46.895Z,0.60
2019-03-25T02:42:17.231Z,0.50
2019-03-25T02:44:47.324Z,0.50
2019-03-25T02:47:16.831Z,0.50
2019-03-25T02:49:48.085Z,0.40
2019-03-25T02:52:20.153Z,0.50
2019-03-25T02:54:55.173Z,0.50
2019-03-25T02:57:26.551Z,0.50
2019-03-25T03:00:01.522Z,0.60
2019-03-25T03:02:33.770Z,0.60
2019-03-25T03:05:04.813Z,0.60
2019-03-25T03:07:37.806Z,0.50
2019-03-25T03:10:10.378Z,0.50
2019-03-25T03:12:40.257Z,0.40
2019-03-25T03:15:10.105Z,0.40
2019-03-25T03:17:40.794Z,0.40
2019-03-25T03:20:14.497Z,0.40
2019-03-25T03:22:47.150Z,0.40
2019-03-25T03:25:20.563Z,0.40
2019-03-25T03:27:54.859Z,0.50
2019-03-25T03:30:27.169Z,0.60
2019-03-25T03:32:59.056Z,0.50
2019-03-25T03:35:32.150Z,0.50
2019-03-25T03:38:05.023Z,0.50
2019-03-25T03:40:38.258Z,0.50
2019-03-25T03:43:12.924Z,0.60
2019-03-25T03:45:46.345Z,0.60
2019-03-25T03:48:20.972Z,0.60
2019-03-25T03:50:53.068Z,0.70
2019-03-25T03:53:23.619Z,0.70
2019-03-25T03:55:54.001Z,0.70
2019-03-25T03:58:26.921Z,0.80
2019-03-25T04:00:59.610Z,0.80
2019-03-25T04:03:35.956Z,0.80
2019-03-25T04:06:08.619Z,0.70
2019-03-25T04:08:40.349Z,0.70
2019-03-25T04:11:11.156Z,0.80
2019-03-25T04:13:43.273Z,0.80
2019-03-25T04:16:17.012Z,0.90
2019-03-25T04:18:49.128Z,0.90
2019-03-25T04:21:20.906Z,0.90
2019-03-25T04:23:54.690Z,1.00
2019-03-25T04:26:29.010Z,1.00
2019-03-25T04:28:58.517Z,1.00
2019-03-25T04:31:30.855Z,1.10
2019-03-25T04:34:02.315Z,1.00
2019-03-25T04:36:31.822Z,1.00
2019-03-25T04:39:03.087Z,1.00
2019-03-25T04:41:37.203Z,1.00
2019-03-25T04:44:09.291Z,1.10
2019-03-25T04:46:41.033Z,1.20
2019-03-25T04:49:12.518Z,1.30
2019-03-25T04:51:44.862Z,1.40
2019-03-25T04:54:16.506Z,1.50
2019-03-25T04:56:47.569Z,1.60
2019-03-25T04:59:19.345Z,1.60
2019-03-25T05:01:50.972Z,1.60
2019-03-25T05:04:22.245Z,1.60
2019-03-25T05:06:54.167Z,1.60
2019-03-25T05:09:26.366Z,1.60
2019-03-25T05:11:55.843Z,1.70
2019-03-25T05:14:25.274Z,1.70
2019-03-25T05:16:56.488Z,1.70
2019-03-25T05:19:31.408Z,1.60
2019-03-25T05:22:03.524Z,1.60
2019-03-25T05:24:36.793Z,1.60
2019-03-25T05:27:09.077Z,1.60
2019-03-25T05:29:42.195Z,1.60
2019-03-25T05:32:17.318Z,1.60
2019-03-25T05:34:46.747Z,1.60
2019-03-25T05:37:17.640Z,1.60
2019-03-25T05:39:48.018Z,1.60
2019-03-25T05:42:22.081Z,1.60
2019-03-25T05:47:27.403Z,1.60
2019-03-25T05:49:57.237Z,1.60
2019-03-25T05:52:27.988Z,1.60
2019-03-25T05:54:59.960Z,1.60
2019-03-25T05:57:32.613Z,1.60
2019-03-25T06:00:03.558Z,1.60
2019-03-25T06:02:34.948Z,1.50
2019-03-25T06:05:06.333Z,1.50
2019-03-25T06:07:37.605Z,1.50
2019-03-25T06:10:08.848Z,1.50
2019-03-25T06:12:42.475Z,1.50
2019-03-25T06:15:12.189Z,1.60
2019-03-25T06:17:43.944Z,1.50
2019-03-25T06:20:15.932Z,1.50
2019-03-25T06:22:48.324Z,1.50
2019-03-25T06:25:21.197Z,1.50
2019-03-25T06:27:53.963Z,1.50
2019-03-25T06:30:26.260Z,1.50
2019-03-25T06:32:56.135Z,1.40
2019-03-25T06:35:25.962Z,1.30
2019-03-25T06:37:58.024Z,1.20
2019-03-25T06:40:29.876Z,1.10
2019-03-25T06:43:03.811Z,0.90
2019-03-25T06:45:38.712Z,0.80
2019-03-25T06:48:11.508Z,0.70
2019-03-25T06:50:41.475Z,0.80
2019-03-25T06:53:10.906Z,1.00
2019-03-25T06:55:40.883Z,1.10
2019-03-25T06:58:11.956Z,1.20
2019-03-25T07:00:43.145Z,1.30
2019-03-25T07:03:17.521Z,1.50
2019-03-25T07:05:48.996Z,1.40
2019-03-25T07:08:26.777Z,1.50
2019-03-25T07:10:59.256Z,1.50
2019-03-25T07:13:29.797Z,1.50
2019-03-25T07:16:05.394Z,1.60
2019-03-25T07:18:35.916Z,1.60
2019-03-25T07:21:07.255Z,2.00
2019-03-25T07:23:40.485Z,2.30
2019-03-25T07:26:11.864Z,2.30
2019-03-25T07:28:45.321Z,2.20
2019-03-25T07:31:18.166Z,2.20
2019-03-25T07:33:49.574Z,2.30
2019-03-25T07:36:21.813Z,2.20
2019-03-25T07:38:56.568Z,2.20
2019-03-25T07:41:32.367Z,2.10
2019-03-25T07:44:04.055Z,2.00
2019-03-25T07:46:35.257Z,1.90
2019-03-25T07:49:07.000Z,2.00
2019-03-25T07:51:39.493Z,1.80
2019-03-25T07:54:15.409Z,1.90
2019-03-25T07:56:49.157Z,2.20
2019-03-25T07:59:20.241Z,2.30
2019-03-25T08:01:50.954Z,2.30
2019-03-25T08:04:27.691Z,2.10
2019-03-25T08:06:59.200Z,2.00
2019-03-25T08:09:32.050Z,2.10
2019-03-25T08:12:03.589Z,2.30
2019-03-25T08:14:34.989Z,2.30
2019-03-25T08:17:09.292Z,2.20
2019-03-25T08:19:41.967Z,2.20
2019-03-25T08:22:15.241Z,2.50
2019-03-25T08:24:47.444Z,2.40
2019-03-25T08:27:20.229Z,2.50
2019-03-25T08:29:54.154Z,2.70
2019-03-25T08:32:27.343Z,2.60
2019-03-25T08:34:58.074Z,2.70
2019-03-25T08:37:31.172Z,2.90
2019-03-25T08:40:03.101Z,2.90
2019-03-25T08:42:32.438Z,2.80
2019-03-25T08:45:06.217Z,2.80
2019-03-25T08:47:40.560Z,2.80
2019-03-25T08:50:11.817Z,2.80
2019-03-25T08:52:44.233Z,2.90
2019-03-25T08:55:15.542Z,2.90
2019-03-25T08:57:49.738Z,3.00
2019-03-25T09:00:21.653Z,2.70
2019-03-25T09:02:54.955Z,2.60
2019-03-25T09:05:27.608Z,2.80
2019-03-25T09:08:02.535Z,2.60
2019-03-25T09:10:35.612Z,2.70
2019-03-25T09:13:09.733Z,2.70
2019-03-25T09:15:41.772Z,2.80
2019-03-25T09:18:17.641Z,2.90
2019-03-25T09:20:49.520Z,2.80
2019-03-25T09:23:18.952Z,2.80
2019-03-25T09:25:49.063Z,2.70
2019-03-25T09:28:24.506Z,2.90
2019-03-25T09:31:21.595Z,2.80
2019-03-25T09:33:53.731Z,2.70
2019-03-25T09:36:23.903Z,2.90
2019-03-25T09:38:55.831Z,3.00
2019-03-25T09:41:27.661Z,2.90
2019-03-25T09:44:00.427Z,2.70
2019-03-25T09:46:33.092Z,3.10
2019-03-25T09:49:03.746Z,3.00
2019-03-25T09:51:33.743Z,3.00
2019-03-25T09:54:07.629Z,3.30
2019-03-25T09:56:43.197Z,3.30
2019-03-25T09:59:17.096Z,3.10
2019-03-25T10:01:47.804Z,3.30
2019-03-25T10:04:21.702Z,3.20
2019-03-25T10:06:53.009Z,3.10
2019-03-25T10:09:24.718Z,3.10
2019-03-25T10:11:58.328Z,3.50
2019-03-25T10:14:30.950Z,3.40
2019-03-25T10:17:02.157Z,3.60
2019-03-25T10:19:35.951Z,3.40
2019-03-25T10:22:06.777Z,3.60
2019-03-25T10:24:39.292Z,3.50
2019-03-25T10:27:10.538Z,3.50
2019-03-25T10:29:43.434Z,3.40
2019-03-25T10:32:14.491Z,3.30
2019-03-25T10:34:48.200Z,3.40
2019-03-25T10:37:20.411Z,3.40
2019-03-25T10:39:52.661Z,3.40
2019-03-25T10:42:28.496Z,3.60
2019-03-25T10:45:03.093Z,3.40
2019-03-25T10:47:36.887Z,3.60
2019-03-25T10:50:09.756Z,3.60
2019-03-25T10:52:42.528Z,3.80
2019-03-25T10:55:12.777Z,3.80
2019-03-25T10:57:44.325Z,3.70
2019-03-25T11:00:17.709Z,3.80
2019-03-25T11:02:51.644Z,4.00
2019-03-25T11:05:22.449Z,4.10
2019-03-25T11:07:54.500Z,3.80
2019-03-25T11:10:26.422Z,4.10
2019-03-25T11:12:57.039Z,4.20
2019-03-25T11:15:28.106Z,4.20
2019-03-25T11:17:58.822Z,4.20
2019-03-25T11:20:31.086Z,4.00
2019-03-25T11:23:03.830Z,4.30
2019-03-25T11:25:34.257Z,4.30
2019-03-25T11:28:05.274Z,4.20
2019-03-25T11:31:08.297Z,4.40
2019-03-25T11:33:45.046Z,4.50
2019-03-25T11:36:17.435Z,4.60
2019-03-25T11:38:48.456Z,4.20
2019-03-25T11:41:20.276Z,4.30
2019-03-25T11:43:52.422Z,4.50
2019-03-25T11:46:24.882Z,4.80
2019-03-25T11:48:57.970Z,4.70
2019-03-25T11:51:29.423Z,4.90
2019-03-25T11:53:58.863Z,4.80
2019-03-25T11:56:32.328Z,4.80
2019-03-25T11:59:03.741Z,4.70
2019-03-25T12:01:35.157Z,4.60
2019-03-25T12:04:10.657Z,4.80
2019-03-25T12:06:44.838Z,4.60
2019-03-25T12:09:20.653Z,4.70
2019-03-25T12:11:53.478Z,4.80
2019-03-25T12:14:28.457Z,4.90
2019-03-25T12:16:59.509Z,4.90
2019-03-25T12:19:31.232Z,5.00
2019-03-25T12:22:01.796Z,4.70
2019-03-25T12:24:32.340Z,4.70
2019-03-25T12:27:03.620Z,4.80
2019-03-25T12:29:34.633Z,5.10
2019-03-25T12:32:09.578Z,5.10
2019-03-25T12:34:46.575Z,5.30
2019-03-25T12:37:18.357Z,5.30
2019-03-25T12:39:48.969Z,5.20
2019-03-25T12:42:22.381Z,5.20
2019-03-25T12:44:55.257Z,5.00
2019-03-25T12:47:30.219Z,5.00
2019-03-25T12:50:04.111Z,5.30
2019-03-25T12:52:36.528Z,5.50
2019-03-25T12:55:09.468Z,5.40
2019-03-25T12:57:41.951Z,5.30
2019-03-25T13:00:15.301Z,5.50
2019-03-25T13:02:47.218Z,5.40
2019-03-25T13:05:19.944Z,5.40
2019-03-25T13:07:52.137Z,5.10
2019-03-25T13:10:21.701Z,5.30
2019-03-25T13:12:54.494Z,5.10
2019-03-25T13:15:27.413Z,5.00
2019-03-25T13:18:00.760Z,5.10
2019-03-25T13:20:34.522Z,5.20
2019-03-25T13:23:06.316Z,5.10
2019-03-25T13:25:39.436Z,5.10
2019-03-25T13:28:10.439Z,5.40
2019-03-25T13:30:41.567Z,5.50
2019-03-25T13:33:14.254Z,6.00
2019-03-25T13:35:45.564Z,5.70
2019-03-25T13:38:18.542Z,5.60
2019-03-25T13:40:49.777Z,5.50
2019-03-25T13:43:21.625Z,5.60
2019-03-25T13:46:05.017Z,5.60
2019-03-25T13:48:29.901Z,5.80
2019-03-25T13:51:02.200Z,5.70
2019-03-25T13:53:36.959Z,5.80
2019-03-25T13:56:15.002Z,5.50
2019-03-25T13:58:47.167Z,5.70
2019-03-25T14:01:19.410Z,5.70
2019-03-25T14:03:49.054Z,5.70
2019-03-25T14:06:21.226Z,6.10
2019-03-25T14:08:58.030Z,6.30
2019-03-25T14:11:30.186Z,6.30
2019-03-25T14:14:02.187Z,6.10
2019-03-25T14:16:37.757Z,5.90
2019-03-25T14:19:11.582Z,6.20
2019-03-25T14:21:41.653Z,5.90
2019-03-25T14:24:14.531Z,6.20
2019-03-25T14:26:44.714Z,6.10
2019-03-25T14:29:16.954Z,6.10
2019-03-25T14:31:48.201Z,6.40
2019-03-25T14:34:18.621Z,6.20
2019-03-25T14:36:51.424Z,6.10
2019-03-25T14:39:23.039Z,6.00
2019-03-25T14:41:57.082Z,6.10
2019-03-25T14:44:30.386Z,6.10
2019-03-25T14:47:03.349Z,6.30
2019-03-25T14:49:33.545Z,5.90
2019-03-25T14:52:05.762Z,6.30
2019-03-25T14:54:37.003Z,6.30
2019-03-25T14:57:09.710Z,6.40
2019-03-25T14:59:42.090Z,6.40
2019-03-25T15:02:12.872Z,6.40
2019-03-25T15:04:43.249Z,6.20
2019-03-25T15:07:13.834Z,6.30
2019-03-25T15:09:47.533Z,6.40
2019-03-25T15:12:21.321Z,6.30
2019-03-25T15:14:51.214Z,6.30
2019-03-25T15:17:23.162Z,6.30
2019-03-25T15:19:54.494Z,6.30
2019-03-25T15:22:26.239Z,6.10
2019-03-25T15:25:00.346Z,6.10
2019-03-25T15:27:31.297Z,6.20
2019-03-25T15:30:02.566Z,6.30
2019-03-25T15:32:33.930Z,6.30
2019-03-25T15:35:10.210Z,6.20
2019-03-25T15:37:42.827Z,6.00
2019-03-25T15:40:14.006Z,6.10
2019-03-25T15:42:49.334Z,6.10
2019-03-25T15:45:21.826Z,6.20
2019-03-25T15:47:58.699Z,6.00
2019-03-25T15:50:29.154Z,6.10
2019-03-25T15:52:58.202Z,5.80
2019-03-25T15:55:29.341Z,5.80
2019-03-25T15:58:01.281Z,5.80
2019-03-25T16:00:42.827Z,5.90
2019-03-25T16:03:10.542Z,5.80
2019-03-25T16:05:42.491Z,5.80
2019-03-25T16:08:12.622Z,5.40
2019-03-25T16:10:42.220Z,5.30
2019-03-25T16:13:11.311Z,5.30
2019-03-25T16:15:42.142Z,5.10
2019-03-25T16:18:18.986Z,5.20
2019-03-25T16:20:51.113Z,5.30
2019-03-25T16:23:21.406Z,5.20
2019-03-25T16:25:50.853Z,5.20
2019-03-25T16:28:22.059Z,5.10
2019-03-25T16:30:58.726Z,5.20
2019-03-25T16:33:26.193Z,5.10
2019-03-25T16:35:55.990Z,4.90
2019-03-25T16:38:26.770Z,4.90
2019-03-25T16:41:02.641Z,4.90
2019-03-25T16:43:36.801Z,4.60
2019-03-25T16:46:08.032Z,4.50
2019-03-25T16:48:39.869Z,4.60
2019-03-25T16:51:10.281Z,4.50
2019-03-25T16:53:41.501Z,4.30
2019-03-25T16:56:13.382Z,4.40
2019-03-25T16:58:44.206Z,4.20
2019-03-25T17:01:17.996Z,4.20
2019-03-25T17:03:50.980Z,4.20
2019-03-25T17:06:22.781Z,3.90
2019-03-25T17:08:55.213Z,3.80
2019-03-25T17:11:27.179Z,3.80
2019-03-25T17:14:00.392Z,3.70
2019-03-25T17:16:32.181Z,3.60
2019-03-25T17:19:03.657Z,3.60
2019-03-25T17:21:37.746Z,3.40
2019-03-25T17:24:09.006Z,3.50
2019-03-25T17:26:42.599Z,3.30
2019-03-25T17:29:11.416Z,3.30
2019-03-25T17:31:42.666Z,3.20
2019-03-25T17:34:13.370Z,3.20
2019-03-25T17:36:45.147Z,3.10
2019-03-25T17:39:19.402Z,3.00
2019-03-25T17:41:52.238Z,2.90
2019-03-25T17:44:23.913Z,2.90
2019-03-25T17:46:55.818Z,2.90
2019-03-25T17:49:27.708Z,2.70
2019-03-25T17:51:58.346Z,2.80
2019-03-25T17:54:30.571Z,2.60
2019-03-25T17:57:02.998Z,2.80
2019-03-25T17:59:35.867Z,2.70
2019-03-25T18:02:11.037Z,2.60
2019-03-25T18:04:42.814Z,2.60
2019-03-25T18:07:14.910Z,2.70
2019-03-25T18:09:46.767Z,2.60
2019-03-25T18:12:19.381Z,2.50
2019-03-25T18:14:50.142Z,2.50
2019-03-25T18:17:22.419Z,2.50
2019-03-25T18:19:54.993Z,2.40
2019-03-25T18:22:39.186Z,2.40
2019-03-25T18:25:02.327Z,2.40
2019-03-25T18:27:33.681Z,2.40
2019-03-25T18:30:09.631Z,2.40
2019-03-25T18:32:45.642Z,2.40
2019-03-25T18:35:19.892Z,2.20
2019-03-25T18:37:52.682Z,2.10
2019-03-25T18:40:25.769Z,2.20
2019-03-25T18:42:59.754Z,2.20
2019-03-25T18:45:30.070Z,2.10
2019-03-25T18:47:59.994Z,2.10
2019-03-25T18:50:32.713Z,2.20
2019-03-25T18:53:05.488Z,2.10
2019-03-25T18:55:37.102Z,2.10
2019-03-25T18:58:06.816Z,2.00
2019-03-25T19:00:38.572Z,2.00
2019-03-25T19:03:12.796Z,2.00
2019-03-25T19:05:45.049Z,2.00
2019-03-25T19:08:18.058Z,2.00
2019-03-25T19:10:49.134Z,2.00
2019-03-25T19:13:19.836Z,1.90
2019-03-25T19:15:54.616Z,1.90
2019-03-25T19:18:26.387Z,1.80
2019-03-25T19:20:58.842Z,1.70
2019-03-25T19:23:30.644Z,1.70
2019-03-25T19:26:06.794Z,1.70
2019-03-25T19:28:39.162Z,1.60
2019-03-25T19:31:11.413Z,1.60
2019-03-25T19:33:42.679Z,1.60
2019-03-25T19:36:14.477Z,1.60
2019-03-25T19:38:47.367Z,1.60
2019-03-25T19:41:31.821Z,1.60
2019-03-25T19:43:54.490Z,1.60
2019-03-25T19:46:27.075Z,1.50
2019-03-25T19:49:02.694Z,1.50
2019-03-25T19:51:34.794Z,1.50
2019-03-25T19:54:08.662Z,1.50
2019-03-25T19:56:41.000Z,1.60
2019-03-25T19:59:12.719Z,1.50
2019-03-25T20:01:46.030Z,1.50
2019-03-25T20:04:17.777Z,1.50
2019-03-25T20:06:48.474Z,1.60
2019-03-25T20:09:21.652Z,1.50
2019-03-25T20:11:51.612Z,1.50
2019-03-25T20:14:22.462Z,1.50
2019-03-25T20:16:54.008Z,1.40
2019-03-25T20:19:25.042Z,1.50
2019-03-25T20:22:00.801Z,1.50
2019-03-25T20:24:33.794Z,1.40
2019-03-25T20:27:05.723Z,1.50
2019-03-25T20:29:36.826Z,1.50
2019-03-25T20:32:09.670Z,1.50
2019-03-25T20:34:41.245Z,1.40
2019-03-25T20:37:14.358Z,1.40
2019-03-25T20:39:46.672Z,1.30
2019-03-25T20:42:17.117Z,1.40
2019-03-25T20:44:46.610Z,1.40
2019-03-25T20:47:18.264Z,1.40
2019-03-25T20:49:50.017Z,1.50
2019-03-25T20:52:24.428Z,1.40
2019-03-25T20:54:56.786Z,1.40
2019-03-25T20:57:29.577Z,1.50
2019-03-25T21:00:00.956Z,1.50
2019-03-25T21:02:44.454Z,1.50
2019-03-25T21:05:06.538Z,1.50
2019-03-25T21:07:38.802Z,1.50
2019-03-25T21:10:13.470Z,1.50
2019-03-25T21:12:47.397Z,1.50
2019-03-25T21:15:21.520Z,1.50
2019-03-25T21:17:54.401Z,1.50
2019-03-25T21:20:25.646Z,1.50
2019-03-25T21:22:57.987Z,1.50
2019-03-25T21:25:32.671Z,1.40
2019-03-25T21:28:04.890Z,1.30
2019-03-25T21:30:47.333Z,1.30
2019-03-25T21:33:09.053Z,1.30
2019-03-25T21:35:43.982Z,1.30
2019-03-25T21:38:16.736Z,1.30
2019-03-25T21:40:48.629Z,1.20
2019-03-25T21:43:19.042Z,1.20
2019-03-25T21:45:50.100Z,1.20
2019-03-25T21:48:21.474Z,1.20
2019-03-25T21:50:52.760Z,1.20
2019-03-25T21:53:25.553Z,1.20
2019-03-25T21:55:56.486Z,1.10
2019-03-25T21:58:28.736Z,1.10
2019-03-25T22:01:03.712Z,1.10
2019-03-25T22:03:36.905Z,1.10
2019-03-25T22:06:08.077Z,1.10
2019-03-25T22:08:40.258Z,1.00
2019-03-25T22:11:11.685Z,1.00
2019-03-25T22:13:44.522Z,1.10
2019-03-25T22:16:17.310Z,1.10
2019-03-25T22:18:50.474Z,1.00
2019-03-25T22:21:23.408Z,1.00
2019-03-25T22:23:55.512Z,1.10
2019-03-25T22:26:25.366Z,1.00
2019-03-25T22:28:58.623Z,1.00
2019-03-25T22:31:29.297Z,1.10
2019-03-25T22:34:00.651Z,1.10
2019-03-25T22:36:33.467Z,1.10
2019-03-25T22:39:04.969Z,1.00
2019-03-25T22:41:37.298Z,1.00
2019-03-25T22:44:09.321Z,1.00
2019-03-25T22:46:40.130Z,1.00
2019-03-25T22:49:12.384Z,1.00
2019-03-25T22:51:42.058Z,1.00
2019-03-25T22:54:12.737Z,1.00
2019-03-25T22:56:42.670Z,1.00
2019-03-25T22:59:13.102Z,1.00
2019-03-25T23:01:55.498Z,1.00
2019-03-25T23:04:27.431Z,1.00
2019-03-25T23:06:59.146Z,1.00
2019-03-25T23:09:29.301Z,1.00
2019-03-25T23:12:02.103Z,1.00
2019-03-25T23:14:33.459Z,1.00
2019-03-25T23:17:08.361Z,1.00
2019-03-25T23:19:41.514Z,1.10
2019-03-25T23:22:14.714Z,1.10
2019-03-25T23:24:48.622Z,1.10
2019-03-25T23:27:21.909Z,1.10
2019-03-25T23:29:53.552Z,1.10
2019-03-25T23:32:26.549Z,1.20
2019-03-25T23:35:00.639Z,1.20
2019-03-25T23:37:34.604Z,1.20
2019-03-25T23:40:07.662Z,1.20
2019-03-25T23:42:40.587Z,1.20
2019-03-25T23:45:10.989Z,1.20
2019-03-25T23:47:41.954Z,1.30
2019-03-25T23:50:14.281Z,1.30
2019-03-25T23:52:47.024Z,1.30
2019-03-25T23:55:18.350Z,1.30
2019-03-25T23:57:50.180Z,1.30
